Terminal Aerodrome Forecast
Issued by NWS Upton, NY

Current Version | Previous Version | Text Only | Print | Product List | Glossary On
Versions: 1 2 3 4 5 6 7 8 9 10 11 12 13 14 15 16 17 18 19 20 21 22 23 24 25
000
FTUS41 KOKX 290200 AAA
TAFISP
TAF AMD
KISP 290232Z 2903/2924 28010KT P6SM SCT080
     FM290500 31007KT P6SM SCT080
     FM291700 26008KT P6SM SCT070
     FM291900 22009KT P6SM BKN070=

USA.gov is the U.S. government's official web portal to all federal, state and local government web resources and services.